sensor_id;sensor_type;location;lat;lon;timestamp;P1;durP1;ratioP1;P2;durP2;ratioP2
53040;SDS011;39326;42.650;23.248;2023-06-22T00:01:18;6.60;;;6.03;;
53040;SDS011;39326;42.650;23.248;2023-06-22T00:03:43;6.70;;;6.10;;
53040;SDS011;39326;42.650;23.248;2023-06-22T00:06:09;6.38;;;5.85;;
53040;SDS011;39326;42.650;23.248;2023-06-22T00:08:34;7.07;;;6.47;;
53040;SDS011;39326;42.650;23.248;2023-06-22T00:11:00;6.75;;;6.22;;
53040;SDS011;39326;42.650;23.248;2023-06-22T00:13:25;6.60;;;6.00;;
53040;SDS011;39326;42.650;23.248;2023-06-22T00:15:51;6.72;;;6.22;;
53040;SDS011;39326;42.650;23.248;2023-06-22T00:18:16;6.00;;;5.60;;
53040;SDS011;39326;42.650;23.248;2023-06-22T00:20:42;7.18;;;6.55;;
53040;SDS011;39326;42.650;23.248;2023-06-22T00:23:07;6.22;;;5.72;;
53040;SDS011;39326;42.650;23.248;2023-06-22T00:25:36;6.90;;;6.40;;
53040;SDS011;39326;42.650;23.248;2023-06-22T00:28:03;7.03;;;6.53;;
53040;SDS011;39326;42.650;23.248;2023-06-22T00:30:30;6.88;;;6.38;;
53040;SDS011;39326;42.650;23.248;2023-06-22T00:32:56;6.82;;;6.22;;
53040;SDS011;39326;42.650;23.248;2023-06-22T00:35:22;6.78;;;6.18;;
53040;SDS011;39326;42.650;23.248;2023-06-22T00:37:47;7.00;;;6.45;;
53040;SDS011;39326;42.650;23.248;2023-06-22T00:40:13;7.00;;;5.93;;
53040;SDS011;39326;42.650;23.248;2023-06-22T00:42:39;6.70;;;6.22;;
53040;SDS011;39326;42.650;23.248;2023-06-22T00:45:05;6.30;;;5.90;;
53040;SDS011;39326;42.650;23.248;2023-06-22T00:47:33;6.57;;;6.07;;
53040;SDS011;39326;42.650;23.248;2023-06-22T00:49:59;7.00;;;6.22;;
53040;SDS011;39326;42.650;23.248;2023-06-22T00:52:25;7.13;;;6.47;;
53040;SDS011;39326;42.650;23.248;2023-06-22T00:54:54;6.72;;;6.22;;
53040;SDS011;39326;42.650;23.248;2023-06-22T00:57:21;6.88;;;6.38;;
53040;SDS011;39326;42.650;23.248;2023-06-22T00:59:50;6.93;;;6.40;;
53040;SDS011;39326;42.650;23.248;2023-06-22T01:02:16;6.40;;;5.90;;
53040;SDS011;39326;42.650;23.248;2023-06-22T01:04:41;7.05;;;6.55;;
53040;SDS011;39326;42.650;23.248;2023-06-22T01:09:49;7.28;;;6.65;;
53040;SDS011;39326;42.650;23.248;2023-06-22T01:12:22;7.05;;;6.55;;
53040;SDS011;39326;42.650;23.248;2023-06-22T01:14:55;7.22;;;6.63;;
53040;SDS011;39326;42.650;23.248;2023-06-22T01:17:30;7.38;;;6.80;;
53040;SDS011;39326;42.650;23.248;2023-06-22T01:19:57;6.90;;;6.30;;
53040;SDS011;39326;42.650;23.248;2023-06-22T01:22:26;7.88;;;7.05;;
53040;SDS011;39326;42.650;23.248;2023-06-22T01:25:12;7.72;;;7.05;;
53040;SDS011;39326;42.650;23.248;2023-06-22T01:30:45;8.75;;;8.05;;
53040;SDS011;39326;42.650;23.248;2023-06-22T01:33:13;7.72;;;7.13;;
53040;SDS011;39326;42.650;23.248;2023-06-22T01:35:40;8.30;;;7.68;;
53040;SDS011;39326;42.650;23.248;2023-06-22T01:38:06;7.70;;;7.00;;
53040;SDS011;39326;42.650;23.248;2023-06-22T01:40:33;7.38;;;6.88;;
53040;SDS011;39326;42.650;23.248;2023-06-22T01:43:00;7.80;;;7.03;;
53040;SDS011;39326;42.650;23.248;2023-06-22T01:45:26;8.00;;;7.47;;
53040;SDS011;39326;42.650;23.248;2023-06-22T01:47:52;7.40;;;6.90;;
53040;SDS011;39326;42.650;23.248;2023-06-22T01:50:19;8.25;;;7.55;;
53040;SDS011;39326;42.650;23.248;2023-06-22T01:52:45;7.85;;;7.15;;
53040;SDS011;39326;42.650;23.248;2023-06-22T01:55:10;7.63;;;7.03;;
53040;SDS011;39326;42.650;23.248;2023-06-22T01:57:36;8.27;;;7.68;;
53040;SDS011;39326;42.650;23.248;2023-06-22T02:00:04;7.78;;;7.10;;
53040;SDS011;39326;42.650;23.248;2023-06-22T02:05:24;8.05;;;7.45;;
53040;SDS011;39326;42.650;23.248;2023-06-22T02:10:27;8.15;;;7.47;;
53040;SDS011;39326;42.650;23.248;2023-06-22T02:12:54;7.65;;;7.05;;
53040;SDS011;39326;42.650;23.248;2023-06-22T02:15:21;8.07;;;7.35;;
53040;SDS011;39326;42.650;23.248;2023-06-22T02:17:47;7.93;;;7.30;;
53040;SDS011;39326;42.650;23.248;2023-06-22T02:20:13;7.10;;;6.60;;
53040;SDS011;39326;42.650;23.248;2023-06-22T02:22:40;7.60;;;7.00;;
53040;SDS011;39326;42.650;23.248;2023-06-22T02:25:05;7.97;;;7.20;;
53040;SDS011;39326;42.650;23.248;2023-06-22T02:27:31;7.88;;;7.25;;
53040;SDS011;39326;42.650;23.248;2023-06-22T02:29:56;8.00;;;7.28;;
53040;SDS011;39326;42.650;23.248;2023-06-22T02:32:22;8.50;;;7.78;;
53040;SDS011;39326;42.650;23.248;2023-06-22T02:34:47;8.13;;;7.50;;
53040;SDS011;39326;42.650;23.248;2023-06-22T02:37:13;7.55;;;6.95;;
53040;SDS011;39326;42.650;23.248;2023-06-22T02:39:42;8.32;;;7.72;;
53040;SDS011;39326;42.650;23.248;2023-06-22T02:42:08;8.43;;;7.72;;
53040;SDS011;39326;42.650;23.248;2023-06-22T02:44:35;8.63;;;7.82;;
53040;SDS011;39326;42.650;23.248;2023-06-22T02:47:01;7.90;;;7.30;;
53040;SDS011;39326;42.650;23.248;2023-06-22T02:49:26;7.95;;;7.35;;
53040;SDS011;39326;42.650;23.248;2023-06-22T02:51:52;8.77;;;7.93;;
53040;SDS011;39326;42.650;23.248;2023-06-22T02:54:18;8.50;;;7.68;;
53040;SDS011;39326;42.650;23.248;2023-06-22T02:56:43;8.27;;;7.63;;
53040;SDS011;39326;42.650;23.248;2023-06-22T02:59:09;8.88;;;8.27;;
53040;SDS011;39326;42.650;23.248;2023-06-22T03:01:35;8.52;;;7.72;;
53040;SDS011;39326;42.650;23.248;2023-06-22T03:04:05;8.35;;;7.75;;
53040;SDS011;39326;42.650;23.248;2023-06-22T03:06:34;9.05;;;8.25;;
53040;SDS011;39326;42.650;23.248;2023-06-22T03:09:00;9.48;;;8.73;;
53040;SDS011;39326;42.650;23.248;2023-06-22T03:11:28;8.52;;;7.93;;
53040;SDS011;39326;42.650;23.248;2023-06-22T03:13:55;9.18;;;8.27;;
53040;SDS011;39326;42.650;23.248;2023-06-22T03:16:20;9.18;;;8.40;;
53040;SDS011;39326;42.650;23.248;2023-06-22T03:18:45;8.98;;;8.18;;
53040;SDS011;39326;42.650;23.248;2023-06-22T03:21:11;9.90;;;9.00;;
53040;SDS011;39326;42.650;23.248;2023-06-22T03:23:36;9.07;;;8.38;;
53040;SDS011;39326;42.650;23.248;2023-06-22T03:26:02;9.10;;;8.40;;
53040;SDS011;39326;42.650;23.248;2023-06-22T03:28:29;9.38;;;8.68;;
53040;SDS011;39326;42.650;23.248;2023-06-22T03:30:54;8.82;;;8.15;;
53040;SDS011;39326;42.650;23.248;2023-06-22T03:33:22;9.50;;;8.32;;
53040;SDS011;39326;42.650;23.248;2023-06-22T03:35:47;8.80;;;8.20;;
53040;SDS011;39326;42.650;23.248;2023-06-22T03:38:13;9.18;;;8.43;;
53040;SDS011;39326;42.650;23.248;2023-06-22T03:40:38;8.70;;;8.00;;
53040;SDS011;39326;42.650;23.248;2023-06-22T03:43:03;8.38;;;7.75;;
53040;SDS011;39326;42.650;23.248;2023-06-22T03:45:29;9.05;;;8.38;;
53040;SDS011;39326;42.650;23.248;2023-06-22T03:47:54;8.82;;;8.18;;
53040;SDS011;39326;42.650;23.248;2023-06-22T03:50:19;8.85;;;8.15;;
53040;SDS011;39326;42.650;23.248;2023-06-22T03:52:45;9.77;;;9.07;;
53040;SDS011;39326;42.650;23.248;2023-06-22T03:55:11;9.13;;;8.43;;
53040;SDS011;39326;42.650;23.248;2023-06-22T03:57:37;8.82;;;8.13;;
53040;SDS011;39326;42.650;23.248;2023-06-22T04:00:02;9.73;;;8.93;;
53040;SDS011;39326;42.650;23.248;2023-06-22T04:02:31;9.90;;;9.05;;
53040;SDS011;39326;42.650;23.248;2023-06-22T04:04:56;10.40;;;9.50;;
53040;SDS011;39326;42.650;23.248;2023-06-22T04:07:22;10.82;;;10.00;;
53040;SDS011;39326;42.650;23.248;2023-06-22T04:09:47;9.75;;;9.05;;
53040;SDS011;39326;42.650;23.248;2023-06-22T04:12:13;10.00;;;9.10;;
53040;SDS011;39326;42.650;23.248;2023-06-22T04:14:38;9.50;;;8.70;;
53040;SDS011;39326;42.650;23.248;2023-06-22T04:17:04;9.23;;;8.55;;
53040;SDS011;39326;42.650;23.248;2023-06-22T04:19:29;9.13;;;8.43;;
53040;SDS011;39326;42.650;23.248;2023-06-22T04:21:55;9.65;;;8.95;;
53040;SDS011;39326;42.650;23.248;2023-06-22T04:24:20;9.25;;;8.57;;
53040;SDS011;39326;42.650;23.248;2023-06-22T04:26:46;8.65;;;8.05;;
53040;SDS011;39326;42.650;23.248;2023-06-22T04:29:12;8.88;;;8.27;;
53040;SDS011;39326;42.650;23.248;2023-06-22T04:31:38;9.68;;;8.98;;
53040;SDS011;39326;42.650;23.248;2023-06-22T04:34:04;10.38;;;9.50;;
53040;SDS011;39326;42.650;23.248;2023-06-22T04:36:40;10.20;;;9.48;;
53040;SDS011;39326;42.650;23.248;2023-06-22T04:39:10;9.52;;;8.82;;
53040;SDS011;39326;42.650;23.248;2023-06-22T04:41:36;9.63;;;8.80;;
53040;SDS011;39326;42.650;23.248;2023-06-22T04:44:09;9.80;;;8.90;;
53040;SDS011;39326;42.650;23.248;2023-06-22T04:46:35;10.02;;;9.23;;
53040;SDS011;39326;42.650;23.248;2023-06-22T04:49:03;10.20;;;9.40;;
53040;SDS011;39326;42.650;23.248;2023-06-22T04:51:35;10.38;;;9.45;;
53040;SDS011;39326;42.650;23.248;2023-06-22T04:54:07;10.93;;;9.80;;
53040;SDS011;39326;42.650;23.248;2023-06-22T04:56:34;10.82;;;9.93;;
53040;SDS011;39326;42.650;23.248;2023-06-22T04:59:00;11.68;;;10.68;;
53040;SDS011;39326;42.650;23.248;2023-06-22T05:01:26;10.18;;;9.38;;
53040;SDS011;39326;42.650;23.248;2023-06-22T05:03:51;10.45;;;9.48;;
53040;SDS011;39326;42.650;23.248;2023-06-22T05:06:23;9.75;;;9.05;;
53040;SDS011;39326;42.650;23.248;2023-06-22T05:08:53;9.57;;;8.75;;
53040;SDS011;39326;42.650;23.248;2023-06-22T05:11:23;9.77;;;8.98;;
53040;SDS011;39326;42.650;23.248;2023-06-22T05:13:50;9.40;;;8.57;;
53040;SDS011;39326;42.650;23.248;2023-06-22T05:16:15;9.38;;;8.48;;
53040;SDS011;39326;42.650;23.248;2023-06-22T05:18:41;9.45;;;8.65;;
53040;SDS011;39326;42.650;23.248;2023-06-22T05:21:06;9.23;;;8.52;;
53040;SDS011;39326;42.650;23.248;2023-06-22T05:23:32;8.55;;;7.95;;
53040;SDS011;39326;42.650;23.248;2023-06-22T05:25:57;9.15;;;8.45;;
53040;SDS011;39326;42.650;23.248;2023-06-22T05:28:23;9.27;;;8.55;;
53040;SDS011;39326;42.650;23.248;2023-06-22T05:30:48;10.68;;;9.77;;
53040;SDS011;39326;42.650;23.248;2023-06-22T05:33:14;10.43;;;9.45;;
53040;SDS011;39326;42.650;23.248;2023-06-22T05:35:39;9.90;;;9.00;;
53040;SDS011;39326;42.650;23.248;2023-06-22T05:38:04;10.85;;;9.65;;
53040;SDS011;39326;42.650;23.248;2023-06-22T05:40:30;10.20;;;9.23;;
53040;SDS011;39326;42.650;23.248;2023-06-22T05:42:55;10.73;;;9.80;;
53040;SDS011;39326;42.650;23.248;2023-06-22T05:45:21;12.15;;;11.13;;
53040;SDS011;39326;42.650;23.248;2023-06-22T05:47:46;11.73;;;10.82;;
53040;SDS011;39326;42.650;23.248;2023-06-22T05:50:11;11.25;;;10.27;;
53040;SDS011;39326;42.650;23.248;2023-06-22T05:52:37;13.40;;;11.32;;
53040;SDS011;39326;42.650;23.248;2023-06-22T05:55:02;13.48;;;11.70;;
53040;SDS011;39326;42.650;23.248;2023-06-22T05:57:28;13.27;;;11.45;;
53040;SDS011;39326;42.650;23.248;2023-06-22T05:59:53;12.48;;;11.20;;
53040;SDS011;39326;42.650;23.248;2023-06-22T06:02:19;14.20;;;13.05;;
53040;SDS011;39326;42.650;23.248;2023-06-22T06:04:44;13.93;;;12.35;;
53040;SDS011;39326;42.650;23.248;2023-06-22T06:07:10;14.18;;;12.75;;
53040;SDS011;39326;42.650;23.248;2023-06-22T06:09:35;13.85;;;12.50;;
53040;SDS011;39326;42.650;23.248;2023-06-22T06:12:01;16.00;;;14.40;;
53040;SDS011;39326;42.650;23.248;2023-06-22T06:14:28;14.77;;;13.00;;
53040;SDS011;39326;42.650;23.248;2023-06-22T06:16:53;13.23;;;12.02;;
53040;SDS011;39326;42.650;23.248;2023-06-22T06:19:19;13.02;;;11.82;;
53040;SDS011;39326;42.650;23.248;2023-06-22T06:21:44;14.75;;;13.48;;
53040;SDS011;39326;42.650;23.248;2023-06-22T06:24:11;13.43;;;12.43;;
53040;SDS011;39326;42.650;23.248;2023-06-22T06:26:37;13.05;;;11.85;;
53040;SDS011;39326;42.650;23.248;2023-06-22T06:29:02;13.75;;;12.55;;
53040;SDS011;39326;42.650;23.248;2023-06-22T06:31:28;14.05;;;12.70;;
53040;SDS011;39326;42.650;23.248;2023-06-22T06:33:54;13.18;;;12.07;;
53040;SDS011;39326;42.650;23.248;2023-06-22T06:36:20;12.63;;;11.55;;
53040;SDS011;39326;42.650;23.248;2023-06-22T06:38:45;14.63;;;12.05;;
53040;SDS011;39326;42.650;23.248;2023-06-22T06:41:15;12.82;;;11.45;;
53040;SDS011;39326;42.650;23.248;2023-06-22T06:43:41;13.52;;;12.02;;
53040;SDS011;39326;42.650;23.248;2023-06-22T06:46:09;12.20;;;11.20;;
53040;SDS011;39326;42.650;23.248;2023-06-22T06:48:35;14.10;;;11.48;;
53040;SDS011;39326;42.650;23.248;2023-06-22T06:51:00;11.90;;;11.00;;
53040;SDS011;39326;42.650;23.248;2023-06-22T06:53:26;13.32;;;11.90;;
53040;SDS011;39326;42.650;23.248;2023-06-22T06:55:53;11.98;;;11.05;;
53040;SDS011;39326;42.650;23.248;2023-06-22T06:58:18;12.93;;;10.82;;
53040;SDS011;39326;42.650;23.248;2023-06-22T07:00:44;11.82;;;10.68;;
53040;SDS011;39326;42.650;23.248;2023-06-22T07:03:09;11.10;;;10.15;;
53040;SDS011;39326;42.650;23.248;2023-06-22T07:05:35;12.27;;;9.68;;
53040;SDS011;39326;42.650;23.248;2023-06-22T07:08:01;11.82;;;10.75;;
53040;SDS011;39326;42.650;23.248;2023-06-22T07:10:26;10.88;;;10.05;;
53040;SDS011;39326;42.650;23.248;2023-06-22T07:12:52;11.30;;;10.43;;
53040;SDS011;39326;42.650;23.248;2023-06-22T07:15:17;11.40;;;10.35;;
53040;SDS011;39326;42.650;23.248;2023-06-22T07:17:43;11.10;;;10.20;;
53040;SDS011;39326;42.650;23.248;2023-06-22T07:20:09;11.55;;;10.55;;
53040;SDS011;39326;42.650;23.248;2023-06-22T07:22:38;12.13;;;10.98;;
53040;SDS011;39326;42.650;23.248;2023-06-22T07:25:12;11.50;;;10.55;;
53040;SDS011;39326;42.650;23.248;2023-06-22T07:27:46;12.60;;;11.52;;
53040;SDS011;39326;42.650;23.248;2023-06-22T07:30:21;12.40;;;11.43;;
53040;SDS011;39326;42.650;23.248;2023-06-22T07:32:46;12.63;;;11.52;;
53040;SDS011;39326;42.650;23.248;2023-06-22T07:35:12;11.65;;;10.82;;
53040;SDS011;39326;42.650;23.248;2023-06-22T07:37:38;10.77;;;10.07;;
53040;SDS011;39326;42.650;23.248;2023-06-22T07:40:04;11.60;;;10.70;;
53040;SDS011;39326;42.650;23.248;2023-06-22T07:42:31;11.30;;;10.32;;
53040;SDS011;39326;42.650;23.248;2023-06-22T07:44:57;12.05;;;11.15;;
53040;SDS011;39326;42.650;23.248;2023-06-22T07:47:23;11.43;;;10.60;;
53040;SDS011;39326;42.650;23.248;2023-06-22T07:49:53;12.40;;;11.35;;
53040;SDS011;39326;42.650;23.248;2023-06-22T07:52:25;11.98;;;10.98;;
53040;SDS011;39326;42.650;23.248;2023-06-22T07:54:51;12.82;;;11.82;;
53040;SDS011;39326;42.650;23.248;2023-06-22T07:57:17;10.98;;;10.25;;
53040;SDS011;39326;42.650;23.248;2023-06-22T07:59:43;12.07;;;11.15;;
53040;SDS011;39326;42.650;23.248;2023-06-22T08:02:09;12.45;;;11.40;;
53040;SDS011;39326;42.650;23.248;2023-06-22T08:04:34;11.98;;;10.93;;
53040;SDS011;39326;42.650;23.248;2023-06-22T08:07:01;13.27;;;12.07;;
53040;SDS011;39326;42.650;23.248;2023-06-22T08:09:30;13.32;;;12.20;;
53040;SDS011;39326;42.650;23.248;2023-06-22T08:11:56;13.60;;;12.57;;
53040;SDS011;39326;42.650;23.248;2023-06-22T08:14:23;12.02;;;11.13;;
53040;SDS011;39326;42.650;23.248;2023-06-22T08:16:49;13.40;;;12.25;;
53040;SDS011;39326;42.650;23.248;2023-06-22T08:19:14;12.85;;;11.75;;
53040;SDS011;39326;42.650;23.248;2023-06-22T08:21:39;12.80;;;11.70;;
53040;SDS011;39326;42.650;23.248;2023-06-22T08:24:05;13.25;;;12.25;;
53040;SDS011;39326;42.650;23.248;2023-06-22T08:26:32;13.82;;;12.90;;
53040;SDS011;39326;42.650;23.248;2023-06-22T08:29:01;12.90;;;11.95;;
53040;SDS011;39326;42.650;23.248;2023-06-22T08:31:27;13.57;;;12.32;;
53040;SDS011;39326;42.650;23.248;2023-06-22T08:33:52;12.45;;;11.45;;
53040;SDS011;39326;42.650;23.248;2023-06-22T08:36:17;12.52;;;11.70;;
53040;SDS011;39326;42.650;23.248;2023-06-22T08:38:43;13.30;;;12.15;;
53040;SDS011;39326;42.650;23.248;2023-06-22T08:41:09;12.85;;;11.73;;
53040;SDS011;39326;42.650;23.248;2023-06-22T08:43:35;11.30;;;10.52;;
53040;SDS011;39326;42.650;23.248;2023-06-22T08:46:01;11.48;;;10.68;;
53040;SDS011;39326;42.650;23.248;2023-06-22T08:48:27;12.05;;;11.15;;
53040;SDS011;39326;42.650;23.248;2023-06-22T08:50:53;12.43;;;11.52;;
53040;SDS011;39326;42.650;23.248;2023-06-22T08:53:18;11.10;;;10.40;;
53040;SDS011;39326;42.650;23.248;2023-06-22T08:55:44;11.07;;;10.25;;
53040;SDS011;39326;42.650;23.248;2023-06-22T08:58:10;11.30;;;10.40;;
53040;SDS011;39326;42.650;23.248;2023-06-22T09:00:35;10.93;;;10.05;;
53040;SDS011;39326;42.650;23.248;2023-06-22T09:03:02;10.07;;;9.38;;
53040;SDS011;39326;42.650;23.248;2023-06-22T09:05:27;10.02;;;9.13;;
53040;SDS011;39326;42.650;23.248;2023-06-22T09:07:53;9.50;;;8.80;;
53040;SDS011;39326;42.650;23.248;2023-06-22T09:10:21;9.63;;;8.73;;
53040;SDS011;39326;42.650;23.248;2023-06-22T09:12:47;9.57;;;8.88;;
53040;SDS011;39326;42.650;23.248;2023-06-22T09:15:12;10.32;;;9.60;;
53040;SDS011;39326;42.650;23.248;2023-06-22T09:17:38;9.75;;;9.05;;
53040;SDS011;39326;42.650;23.248;2023-06-22T09:20:03;10.02;;;9.23;;
53040;SDS011;39326;42.650;23.248;2023-06-22T09:22:35;9.43;;;8.73;;
53040;SDS011;39326;42.650;23.248;2023-06-22T09:25:01;10.63;;;9.93;;
53040;SDS011;39326;42.650;23.248;2023-06-22T09:27:27;10.98;;;10.18;;
53040;SDS011;39326;42.650;23.248;2023-06-22T09:29:53;10.60;;;9.80;;
53040;SDS011;39326;42.650;23.248;2023-06-22T09:32:18;9.90;;;9.15;;
53040;SDS011;39326;42.650;23.248;2023-06-22T09:34:44;10.25;;;9.43;;
53040;SDS011;39326;42.650;23.248;2023-06-22T09:37:09;9.60;;;9.00;;
53040;SDS011;39326;42.650;23.248;2023-06-22T09:39:35;10.88;;;10.05;;
53040;SDS011;39326;42.650;23.248;2023-06-22T09:42:01;10.07;;;9.38;;
53040;SDS011;39326;42.650;23.248;2023-06-22T09:44:27;10.73;;;9.93;;
53040;SDS011;39326;42.650;23.248;2023-06-22T09:46:52;10.63;;;9.73;;
53040;SDS011;39326;42.650;23.248;2023-06-22T09:49:18;10.52;;;9.73;;
53040;SDS011;39326;42.650;23.248;2023-06-22T09:51:43;10.40;;;9.70;;
53040;SDS011;39326;42.650;23.248;2023-06-22T09:54:09;10.10;;;9.40;;
53040;SDS011;39326;42.650;23.248;2023-06-22T09:56:34;10.73;;;9.98;;
53040;SDS011;39326;42.650;23.248;2023-06-22T09:58:59;10.18;;;9.38;;
53040;SDS011;39326;42.650;23.248;2023-06-22T10:01:25;10.15;;;9.38;;
53040;SDS011;39326;42.650;23.248;2023-06-22T10:03:52;10.57;;;9.88;;
53040;SDS011;39326;42.650;23.248;2023-06-22T10:06:19;10.27;;;9.48;;
53040;SDS011;39326;42.650;23.248;2023-06-22T10:08:45;9.75;;;9.07;;
53040;SDS011;39326;42.650;23.248;2023-06-22T10:11:10;19.08;;;10.00;;
53040;SDS011;39326;42.650;23.248;2023-06-22T10:13:36;9.52;;;8.68;;
53040;SDS011;39326;42.650;23.248;2023-06-22T10:16:01;9.05;;;8.45;;
53040;SDS011;39326;42.650;23.248;2023-06-22T10:18:27;8.63;;;8.13;;
53040;SDS011;39326;42.650;23.248;2023-06-22T10:20:52;8.90;;;8.30;;
53040;SDS011;39326;42.650;23.248;2023-06-22T10:23:18;9.13;;;8.63;;
53040;SDS011;39326;42.650;23.248;2023-06-22T10:25:46;9.70;;;9.00;;
53040;SDS011;39326;42.650;23.248;2023-06-22T10:28:12;8.90;;;8.30;;
53040;SDS011;39326;42.650;23.248;2023-06-22T10:30:38;9.40;;;8.80;;
53040;SDS011;39326;42.650;23.248;2023-06-22T10:33:06;9.80;;;9.15;;
53040;SDS011;39326;42.650;23.248;2023-06-22T10:35:32;9.13;;;8.38;;
53040;SDS011;39326;42.650;23.248;2023-06-22T10:37:58;9.23;;;8.52;;
53040;SDS011;39326;42.650;23.248;2023-06-22T10:40:23;8.95;;;8.38;;
53040;SDS011;39326;42.650;23.248;2023-06-22T10:42:48;9.43;;;8.70;;
53040;SDS011;39326;42.650;23.248;2023-06-22T10:45:15;9.07;;;8.38;;
53040;SDS011;39326;42.650;23.248;2023-06-22T10:47:40;9.75;;;9.10;;
53040;SDS011;39326;42.650;23.248;2023-06-22T10:50:07;9.38;;;8.77;;
53040;SDS011;39326;42.650;23.248;2023-06-22T10:52:33;9.02;;;8.38;;
53040;SDS011;39326;42.650;23.248;2023-06-22T10:54:58;9.98;;;9.27;;
53040;SDS011;39326;42.650;23.248;2023-06-22T10:57:24;9.60;;;8.80;;
53040;SDS011;39326;42.650;23.248;2023-06-22T10:59:49;9.20;;;8.50;;
53040;SDS011;39326;42.650;23.248;2023-06-22T11:02:15;9.30;;;8.70;;
53040;SDS011;39326;42.650;23.248;2023-06-22T11:04:40;10.18;;;9.38;;
53040;SDS011;39326;42.650;23.248;2023-06-22T11:07:05;10.10;;;9.40;;
53040;SDS011;39326;42.650;23.248;2023-06-22T11:09:31;9.90;;;9.10;;
53040;SDS011;39326;42.650;23.248;2023-06-22T11:11:56;9.90;;;8.90;;
53040;SDS011;39326;42.650;23.248;2023-06-22T11:14:24;10.30;;;9.60;;
53040;SDS011;39326;42.650;23.248;2023-06-22T11:16:49;10.20;;;9.50;;
53040;SDS011;39326;42.650;23.248;2023-06-22T11:19:15;9.75;;;8.95;;
53040;SDS011;39326;42.650;23.248;2023-06-22T11:21:40;10.90;;;9.60;;
53040;SDS011;39326;42.650;23.248;2023-06-22T11:24:06;9.00;;;8.32;;
53040;SDS011;39326;42.650;23.248;2023-06-22T11:26:31;9.35;;;8.65;;
53040;SDS011;39326;42.650;23.248;2023-06-22T11:28:58;9.60;;;8.90;;
53040;SDS011;39326;42.650;23.248;2023-06-22T11:31:23;10.02;;;9.30;;
53040;SDS011;39326;42.650;23.248;2023-06-22T11:33:49;9.85;;;9.25;;
53040;SDS011;39326;42.650;23.248;2023-06-22T11:36:15;10.20;;;9.38;;
53040;SDS011;39326;42.650;23.248;2023-06-22T11:38:41;10.00;;;9.30;;
53040;SDS011;39326;42.650;23.248;2023-06-22T11:41:07;10.27;;;9.27;;
53040;SDS011;39326;42.650;23.248;2023-06-22T11:43:33;10.32;;;9.60;;
53040;SDS011;39326;42.650;23.248;2023-06-22T11:46:00;10.68;;;9.98;;
53040;SDS011;39326;42.650;23.248;2023-06-22T11:48:26;10.88;;;10.15;;
53040;SDS011;39326;42.650;23.248;2023-06-22T11:50:52;10.15;;;9.50;;
53040;SDS011;39326;42.650;23.248;2023-06-22T11:53:17;10.23;;;9.52;;
53040;SDS011;39326;42.650;23.248;2023-06-22T11:55:43;10.88;;;10.07;;
53040;SDS011;39326;42.650;23.248;2023-06-22T11:58:09;10.95;;;10.18;;
53040;SDS011;39326;42.650;23.248;2023-06-22T12:00:35;11.90;;;11.02;;
53040;SDS011;39326;42.650;23.248;2023-06-22T12:03:00;12.75;;;11.60;;
53040;SDS011;39326;42.650;23.248;2023-06-22T12:05:26;11.55;;;10.75;;
53040;SDS011;39326;42.650;23.248;2023-06-22T12:07:53;11.32;;;10.63;;
53040;SDS011;39326;42.650;23.248;2023-06-22T12:10:18;11.90;;;11.07;;
53040;SDS011;39326;42.650;23.248;2023-06-22T12:12:44;11.95;;;11.05;;
53040;SDS011;39326;42.650;23.248;2023-06-22T12:15:09;11.75;;;10.90;;
53040;SDS011;39326;42.650;23.248;2023-06-22T12:17:35;11.93;;;11.02;;
53040;SDS011;39326;42.650;23.248;2023-06-22T12:20:01;11.88;;;10.93;;
53040;SDS011;39326;42.650;23.248;2023-06-22T12:22:30;11.75;;;10.98;;
53040;SDS011;39326;42.650;23.248;2023-06-22T12:24:59;12.80;;;11.98;;
53040;SDS011;39326;42.650;23.248;2023-06-22T12:27:25;12.10;;;11.30;;
53040;SDS011;39326;42.650;23.248;2023-06-22T12:29:50;12.10;;;11.30;;
53040;SDS011;39326;42.650;23.248;2023-06-22T12:32:16;12.05;;;11.05;;
53040;SDS011;39326;42.650;23.248;2023-06-22T12:34:42;11.18;;;10.18;;
53040;SDS011;39326;42.650;23.248;2023-06-22T12:37:07;12.55;;;11.45;;
53040;SDS011;39326;42.650;23.248;2023-06-22T12:39:33;13.55;;;12.05;;
53040;SDS011;39326;42.650;23.248;2023-06-22T12:41:59;13.18;;;11.82;;
53040;SDS011;39326;42.650;23.248;2023-06-22T12:44:24;14.75;;;13.40;;
53040;SDS011;39326;42.650;23.248;2023-06-22T12:46:50;12.88;;;11.75;;
53040;SDS011;39326;42.650;23.248;2023-06-22T12:49:15;11.93;;;10.82;;
53040;SDS011;39326;42.650;23.248;2023-06-22T12:51:41;11.15;;;10.18;;
53040;SDS011;39326;42.650;23.248;2023-06-22T12:54:08;11.70;;;10.60;;
53040;SDS011;39326;42.650;23.248;2023-06-22T12:56:34;9.48;;;8.77;;
53040;SDS011;39326;42.650;23.248;2023-06-22T12:58:59;8.95;;;8.15;;
53040;SDS011;39326;42.650;23.248;2023-06-22T13:01:28;8.30;;;7.50;;
53040;SDS011;39326;42.650;23.248;2023-06-22T13:03:53;8.43;;;7.68;;
53040;SDS011;39326;42.650;23.248;2023-06-22T13:06:19;8.18;;;7.40;;
53040;SDS011;39326;42.650;23.248;2023-06-22T13:08:45;8.10;;;7.30;;
53040;SDS011;39326;42.650;23.248;2023-06-22T13:11:10;8.30;;;7.50;;
53040;SDS011;39326;42.650;23.248;2023-06-22T13:13:35;8.45;;;7.80;;
53040;SDS011;39326;42.650;23.248;2023-06-22T13:16:01;9.48;;;8.25;;
53040;SDS011;39326;42.650;23.248;2023-06-22T13:18:26;8.63;;;8.02;;
53040;SDS011;39326;42.650;23.248;2023-06-22T13:20:52;9.98;;;9.10;;
53040;SDS011;39326;42.650;23.248;2023-06-22T13:23:19;8.35;;;7.65;;
53040;SDS011;39326;42.650;23.248;2023-06-22T13:25:46;8.65;;;7.95;;
53040;SDS011;39326;42.650;23.248;2023-06-22T13:28:11;8.85;;;8.05;;
53040;SDS011;39326;42.650;23.248;2023-06-22T13:30:38;8.85;;;8.02;;
53040;SDS011;39326;42.650;23.248;2023-06-22T13:33:05;8.88;;;8.07;;
53040;SDS011;39326;42.650;23.248;2023-06-22T13:35:30;8.35;;;7.60;;
53040;SDS011;39326;42.650;23.248;2023-06-22T13:37:56;9.77;;;8.88;;
53040;SDS011;39326;42.650;23.248;2023-06-22T13:40:21;9.10;;;8.32;;
53040;SDS011;39326;42.650;23.248;2023-06-22T13:42:47;8.30;;;7.60;;
53040;SDS011;39326;42.650;23.248;2023-06-22T13:45:12;8.80;;;8.00;;
53040;SDS011;39326;42.650;23.248;2023-06-22T13:47:37;9.70;;;8.88;;
53040;SDS011;39326;42.650;23.248;2023-06-22T13:50:03;9.70;;;8.90;;
53040;SDS011;39326;42.650;23.248;2023-06-22T13:52:28;9.70;;;8.90;;
53040;SDS011;39326;42.650;23.248;2023-06-22T13:54:54;9.20;;;8.40;;
53040;SDS011;39326;42.650;23.248;2023-06-22T13:57:19;9.82;;;9.00;;
53040;SDS011;39326;42.650;23.248;2023-06-22T13:59:45;9.70;;;8.90;;
53040;SDS011;39326;42.650;23.248;2023-06-22T14:02:11;9.82;;;9.02;;
53040;SDS011;39326;42.650;23.248;2023-06-22T14:04:36;10.43;;;9.57;;
53040;SDS011;39326;42.650;23.248;2023-06-22T14:07:03;10.60;;;9.80;;
53040;SDS011;39326;42.650;23.248;2023-06-22T14:09:28;10.55;;;9.75;;
53040;SDS011;39326;42.650;23.248;2023-06-22T14:11:54;10.45;;;9.55;;
53040;SDS011;39326;42.650;23.248;2023-06-22T14:14:21;11.93;;;10.73;;
53040;SDS011;39326;42.650;23.248;2023-06-22T14:16:46;10.48;;;9.57;;
53040;SDS011;39326;42.650;23.248;2023-06-22T14:19:12;10.25;;;9.45;;
53040;SDS011;39326;42.650;23.248;2023-06-22T14:21:38;11.02;;;10.23;;
53040;SDS011;39326;42.650;23.248;2023-06-22T14:24:03;11.13;;;10.25;;
53040;SDS011;39326;42.650;23.248;2023-06-22T14:26:29;12.02;;;11.02;;
53040;SDS011;39326;42.650;23.248;2023-06-22T14:28:54;11.00;;;9.93;;